createdAt,value
2019-04-25T00:00:03.091Z,76.79
2019-04-25T00:10:08.443Z,78.61
2019-04-25T00:20:03.255Z,78.62
2019-04-25T00:30:04.054Z,78.06
2019-04-25T00:40:02.950Z,77.76
2019-04-25T00:50:02.810Z,77.59
2019-04-25T01:00:03.158Z,79.13
2019-04-25T01:10:08.524Z,79.60
2019-04-25T01:20:04.557Z,79.19
2019-04-25T01:30:06.504Z,79.43
2019-04-25T01:40:04.474Z,80.66
2019-04-25T01:50:08.581Z,80.50
2019-04-25T02:00:04.600Z,80.40
2019-04-25T02:10:08.418Z,80.19
2019-04-25T02:20:04.531Z,80.74
2019-04-25T02:30:09.460Z,81.16
2019-04-25T02:40:08.241Z,81.40
2019-04-25T02:50:09.543Z,81.82
2019-04-25T03:00:08.728Z,82.01
2019-04-25T03:10:10.041Z,82.16
2019-04-25T03:20:09.998Z,81.66
2019-04-25T03:30:09.470Z,82.34
2019-04-25T03:40:06.564Z,82.08
2019-04-25T03:50:08.619Z,82.94
2019-04-25T04:00:07.516Z,83.37
2019-04-25T04:10:08.504Z,83.12
2019-04-25T04:20:05.682Z,82.31
2019-04-25T04:30:04.566Z,80.99
2019-04-25T04:40:09.995Z,79.57
2019-04-25T04:50:04.299Z,78.99
2019-04-25T05:00:04.249Z,75.26
2019-04-25T05:10:08.364Z,72.31
2019-04-25T05:20:03.919Z,68.37
2019-04-25T05:30:09.014Z,65.62
2019-04-25T05:40:05.890Z,62.99
2019-04-25T05:50:03.807Z,59.73
2019-04-25T06:00:04.271Z,54.96
2019-04-25T06:10:08.281Z,51.65
2019-04-25T06:20:06.359Z,47.18
2019-04-25T06:30:04.794Z,45.35
2019-04-25T06:40:05.044Z,43.10
2019-04-25T06:50:08.308Z,41.19
2019-04-25T07:00:05.129Z,40.39
2019-04-25T07:10:04.014Z,38.27
2019-04-25T07:20:04.293Z,38.13
2019-04-25T07:30:09.383Z,36.56
2019-04-25T07:40:04.501Z,37.12
2019-04-25T07:50:07.812Z,36.14
2019-04-25T08:00:05.099Z,34.71
2019-04-25T08:10:04.404Z,33.34
2019-04-25T08:20:04.298Z,31.90
2019-04-25T08:30:04.741Z,29.12
2019-04-25T08:40:04.407Z,27.47
2019-04-25T08:50:08.673Z,28.76
2019-04-25T09:00:06.543Z,27.29
2019-04-25T09:10:03.938Z,28.00
2019-04-25T09:20:04.396Z,27.51
2019-04-25T09:30:06.167Z,26.73
2019-04-25T09:40:08.366Z,26.48
2019-04-25T09:50:04.485Z,27.52
2019-04-25T10:00:04.075Z,28.04
2019-04-25T10:10:04.157Z,26.28
2019-04-25T10:20:03.146Z,21.91
2019-04-25T10:30:19.929Z,24.68
2019-04-25T10:40:04.700Z,23.39
2019-04-25T10:50:04.228Z,21.26
2019-04-25T11:00:09.543Z,19.96
2019-04-25T11:10:08.666Z,20.09
2019-04-25T11:20:05.838Z,18.00
2019-04-25T11:30:11.546Z,18.59
2019-04-25T11:40:08.684Z,16.47
2019-04-25T11:50:04.355Z,15.76
2019-04-25T12:00:04.653Z,15.49
2019-04-25T12:10:04.155Z,15.80
2019-04-25T12:20:08.670Z,15.21
2019-04-25T12:30:06.059Z,15.04
2019-04-25T12:40:08.547Z,15.19
2019-04-25T12:50:04.408Z,15.33
2019-04-25T13:00:07.554Z,15.08
2019-04-25T13:10:03.271Z,14.72
2019-04-25T13:20:05.527Z,15.15
2019-04-25T13:30:06.736Z,14.95
2019-04-25T13:40:02.972Z,15.97
2019-04-25T13:50:02.816Z,16.32
2019-04-25T14:00:04.576Z,17.09
2019-04-25T14:10:08.658Z,16.58
2019-04-25T14:20:08.533Z,17.33
2019-04-25T14:30:04.776Z,17.92
2019-04-25T14:40:04.478Z,18.64
2019-04-25T14:50:08.533Z,18.94
2019-04-25T15:00:05.180Z,18.94
2019-04-25T15:10:02.949Z,19.68
2019-04-25T15:20:08.011Z,19.76
2019-04-25T15:30:03.754Z,18.99
2019-04-25T15:40:07.148Z,18.66
2019-04-25T15:50:03.303Z,18.97
2019-04-25T16:00:03.647Z,19.37
2019-04-25T16:10:02.984Z,19.23
2019-04-25T16:20:08.280Z,19.21
2019-04-25T16:30:03.043Z,19.60
2019-04-25T16:40:02.976Z,20.01
2019-04-25T16:50:08.236Z,20.90
2019-04-25T17:00:02.965Z,21.73
2019-04-25T17:10:03.041Z,22.42
2019-04-25T17:20:02.647Z,23.43
2019-04-25T17:30:08.873Z,24.22
2019-04-25T17:40:08.659Z,25.01
2019-04-25T17:50:08.259Z,25.90
2019-04-25T18:00:08.353Z,26.55
2019-04-25T18:10:03.284Z,27.33
2019-04-25T18:20:03.139Z,27.74
2019-04-25T18:30:06.035Z,28.58
2019-04-25T18:40:08.446Z,29.22
2019-04-25T18:50:02.646Z,29.46
2019-04-25T19:00:03.816Z,29.99
2019-04-25T19:10:07.869Z,30.39
2019-04-25T19:20:03.283Z,31.01
2019-04-25T19:30:03.544Z,31.18
2019-04-25T19:40:07.700Z,32.00
2019-04-25T19:50:08.342Z,32.16
2019-04-25T20:00:03.079Z,32.48
2019-04-25T20:10:07.872Z,32.29
2019-04-25T20:20:02.887Z,32.78
2019-04-25T20:30:03.153Z,33.11
2019-04-25T20:40:03.084Z,33.80
2019-04-25T20:50:03.030Z,34.39
2019-04-25T21:00:03.274Z,34.85
2019-04-25T21:10:03.362Z,35.24
2019-04-25T21:20:08.294Z,36.34
2019-04-25T21:30:03.919Z,36.95
2019-04-25T21:40:03.421Z,37.22
2019-04-25T21:50:03.647Z,36.73
2019-04-25T22:00:09.442Z,36.37
2019-04-25T22:10:02.627Z,37.30
2019-04-25T22:20:02.929Z,37.13
2019-04-25T22:30:04.056Z,36.42
2019-04-25T22:40:08.165Z,36.46
2019-04-25T22:50:03.313Z,37.34
2019-04-25T23:00:04.941Z,39.00
2019-04-25T23:10:08.928Z,38.30
2019-04-25T23:20:09.572Z,35.87
2019-04-25T23:30:05.492Z,36.51
2019-04-25T23:40:09.930Z,37.04
2019-04-25T23:50:03.150Z,38.51
